sensor_id;sensor_type;location;lat;lon;timestamp;P1;durP1;ratioP1;P2;durP2;ratioP2
50161;SDS011;36061;48.116;11.612;2023-02-15T00:01:34;32.17;;;7.10;;
50161;SDS011;36061;48.116;11.612;2023-02-15T00:04:04;22.33;;;6.93;;
50161;SDS011;36061;48.116;11.612;2023-02-15T00:06:32;10.03;;;6.30;;
50161;SDS011;36061;48.116;11.612;2023-02-15T00:08:59;9.77;;;6.37;;
50161;SDS011;36061;48.116;11.612;2023-02-15T00:11:28;26.27;;;6.77;;
50161;SDS011;36061;48.116;11.612;2023-02-15T00:14:09;15.03;;;5.40;;
50161;SDS011;36061;48.116;11.612;2023-02-15T00:16:37;16.17;;;6.03;;
50161;SDS011;36061;48.116;11.612;2023-02-15T00:19:07;30.30;;;7.27;;
50161;SDS011;36061;48.116;11.612;2023-02-15T00:21:35;9.70;;;6.47;;
50161;SDS011;36061;48.116;11.612;2023-02-15T00:24:04;12.20;;;6.30;;
50161;SDS011;36061;48.116;11.612;2023-02-15T00:26:33;11.07;;;6.60;;
50161;SDS011;36061;48.116;11.612;2023-02-15T00:29:01;11.33;;;6.17;;
50161;SDS011;36061;48.116;11.612;2023-02-15T00:31:29;14.20;;;6.30;;
50161;SDS011;36061;48.116;11.612;2023-02-15T00:34:00;14.77;;;6.17;;
50161;SDS011;36061;48.116;11.612;2023-02-15T00:36:29;9.00;;;5.33;;
50161;SDS011;36061;48.116;11.612;2023-02-15T00:38:56;14.77;;;5.73;;
50161;SDS011;36061;48.116;11.612;2023-02-15T00:41:24;10.63;;;6.47;;
50161;SDS011;36061;48.116;11.612;2023-02-15T00:43:51;19.43;;;6.60;;
50161;SDS011;36061;48.116;11.612;2023-02-15T00:46:18;21.40;;;5.97;;
50161;SDS011;36061;48.116;11.612;2023-02-15T00:48:46;20.23;;;6.10;;
50161;SDS011;36061;48.116;11.612;2023-02-15T00:51:13;14.60;;;5.73;;
50161;SDS011;36061;48.116;11.612;2023-02-15T00:53:41;11.60;;;5.33;;
50161;SDS011;36061;48.116;11.612;2023-02-15T00:56:09;14.00;;;6.03;;
50161;SDS011;36061;48.116;11.612;2023-02-15T00:58:36;20.50;;;5.93;;
50161;SDS011;36061;48.116;11.612;2023-02-15T01:01:04;15.73;;;6.20;;
50161;SDS011;36061;48.116;11.612;2023-02-15T01:03:32;20.13;;;6.00;;
50161;SDS011;36061;48.116;11.612;2023-02-15T01:06:01;16.03;;;6.43;;
50161;SDS011;36061;48.116;11.612;2023-02-15T01:08:30;8.07;;;5.70;;
50161;SDS011;36061;48.116;11.612;2023-02-15T01:10:59;9.87;;;5.80;;
50161;SDS011;36061;48.116;11.612;2023-02-15T01:13:30;15.93;;;6.30;;
50161;SDS011;36061;48.116;11.612;2023-02-15T01:15:57;6.87;;;5.30;;
50161;SDS011;36061;48.116;11.612;2023-02-15T01:18:25;11.47;;;4.77;;
50161;SDS011;36061;48.116;11.612;2023-02-15T01:20:52;13.40;;;5.53;;
50161;SDS011;36061;48.116;11.612;2023-02-15T01:23:20;11.57;;;5.17;;
50161;SDS011;36061;48.116;11.612;2023-02-15T01:25:47;7.93;;;5.00;;
50161;SDS011;36061;48.116;11.612;2023-02-15T01:28:16;28.87;;;6.43;;
50161;SDS011;36061;48.116;11.612;2023-02-15T01:30:43;17.60;;;5.47;;
50161;SDS011;36061;48.116;11.612;2023-02-15T01:33:10;7.80;;;4.97;;
50161;SDS011;36061;48.116;11.612;2023-02-15T01:35:43;11.90;;;6.33;;
50161;SDS011;36061;48.116;11.612;2023-02-15T01:38:12;10.23;;;5.70;;
50161;SDS011;36061;48.116;11.612;2023-02-15T01:40:39;17.20;;;5.83;;
50161;SDS011;36061;48.116;11.612;2023-02-15T01:43:09;11.83;;;5.37;;
50161;SDS011;36061;48.116;11.612;2023-02-15T01:45:38;11.60;;;5.80;;
50161;SDS011;36061;48.116;11.612;2023-02-15T01:48:13;10.77;;;5.63;;
50161;SDS011;36061;48.116;11.612;2023-02-15T01:50:47;10.07;;;5.93;;
50161;SDS011;36061;48.116;11.612;2023-02-15T01:53:20;7.83;;;5.57;;
50161;SDS011;36061;48.116;11.612;2023-02-15T01:55:52;7.70;;;5.97;;
50161;SDS011;36061;48.116;11.612;2023-02-15T01:58:23;10.10;;;5.73;;
50161;SDS011;36061;48.116;11.612;2023-02-15T02:00:56;8.10;;;5.70;;
50161;SDS011;36061;48.116;11.612;2023-02-15T02:03:29;21.73;;;5.90;;
50161;SDS011;36061;48.116;11.612;2023-02-15T02:06:03;16.27;;;5.57;;
50161;SDS011;36061;48.116;11.612;2023-02-15T02:08:30;7.17;;;5.53;;
50161;SDS011;36061;48.116;11.612;2023-02-15T02:10:58;17.60;;;6.40;;
50161;SDS011;36061;48.116;11.612;2023-02-15T02:13:25;8.63;;;5.37;;
50161;SDS011;36061;48.116;11.612;2023-02-15T02:15:54;11.30;;;4.80;;
50161;SDS011;36061;48.116;11.612;2023-02-15T02:18:32;13.03;;;5.27;;
50161;SDS011;36061;48.116;11.612;2023-02-15T02:21:19;8.77;;;5.60;;
50161;SDS011;36061;48.116;11.612;2023-02-15T02:24:15;15.57;;;6.00;;
50161;SDS011;36061;48.116;11.612;2023-02-15T02:36:21;11.27;;;6.10;;
50161;SDS011;36061;48.116;11.612;2023-02-15T02:38:57;17.17;;;5.90;;
50161;SDS011;36061;48.116;11.612;2023-02-15T02:41:36;10.73;;;4.90;;
50161;SDS011;36061;48.116;11.612;2023-02-15T02:44:11;24.10;;;5.50;;
50161;SDS011;36061;48.116;11.612;2023-02-15T02:46:45;11.30;;;5.13;;
50161;SDS011;36061;48.116;11.612;2023-02-15T02:49:20;12.30;;;6.07;;
50161;SDS011;36061;48.116;11.612;2023-02-15T02:51:57;16.13;;;5.87;;
50161;SDS011;36061;48.116;11.612;2023-02-15T02:54:25;11.30;;;5.30;;
50161;SDS011;36061;48.116;11.612;2023-02-15T02:56:54;6.93;;;5.33;;
50161;SDS011;36061;48.116;11.612;2023-02-15T02:59:26;9.27;;;4.90;;
50161;SDS011;36061;48.116;11.612;2023-02-15T03:01:57;6.33;;;4.60;;
50161;SDS011;36061;48.116;11.612;2023-02-15T03:04:31;14.97;;;5.77;;
50161;SDS011;36061;48.116;11.612;2023-02-15T03:07:02;9.10;;;6.07;;
50161;SDS011;36061;48.116;11.612;2023-02-15T03:09:33;10.03;;;4.87;;
50161;SDS011;36061;48.116;11.612;2023-02-15T03:12:08;9.13;;;5.10;;
50161;SDS011;36061;48.116;11.612;2023-02-15T03:14:41;8.97;;;5.17;;
50161;SDS011;36061;48.116;11.612;2023-02-15T03:17:10;8.20;;;5.43;;
50161;SDS011;36061;48.116;11.612;2023-02-15T03:19:40;9.27;;;5.60;;
50161;SDS011;36061;48.116;11.612;2023-02-15T03:22:12;7.93;;;5.53;;
50161;SDS011;36061;48.116;11.612;2023-02-15T03:24:47;10.13;;;5.90;;
50161;SDS011;36061;48.116;11.612;2023-02-15T03:27:20;12.07;;;5.60;;
50161;SDS011;36061;48.116;11.612;2023-02-15T03:29:51;7.27;;;5.50;;
50161;SDS011;36061;48.116;11.612;2023-02-15T03:32:22;8.87;;;5.13;;
50161;SDS011;36061;48.116;11.612;2023-02-15T03:34:53;11.10;;;5.13;;
50161;SDS011;36061;48.116;11.612;2023-02-15T03:37:23;11.27;;;5.83;;
50161;SDS011;36061;48.116;11.612;2023-02-15T03:39:54;6.70;;;5.10;;
50161;SDS011;36061;48.116;11.612;2023-02-15T03:42:46;10.60;;;5.73;;
50161;SDS011;36061;48.116;11.612;2023-02-15T03:45:24;13.63;;;5.20;;
50161;SDS011;36061;48.116;11.612;2023-02-15T03:47:54;10.27;;;5.53;;
50161;SDS011;36061;48.116;11.612;2023-02-15T03:50:27;7.87;;;5.07;;
50161;SDS011;36061;48.116;11.612;2023-02-15T03:53:14;8.10;;;4.80;;
50161;SDS011;36061;48.116;11.612;2023-02-15T03:55:46;14.70;;;4.97;;
50161;SDS011;36061;48.116;11.612;2023-02-15T03:58:13;9.27;;;5.77;;
50161;SDS011;36061;48.116;11.612;2023-02-15T04:00:59;7.03;;;4.87;;
50161;SDS011;36061;48.116;11.612;2023-02-15T04:03:48;23.57;;;5.67;;
50161;SDS011;36061;48.116;11.612;2023-02-15T04:06:23;12.27;;;5.30;;
50161;SDS011;36061;48.116;11.612;2023-02-15T04:08:51;11.77;;;5.60;;
50161;SDS011;36061;48.116;11.612;2023-02-15T04:11:35;9.83;;;5.93;;
50161;SDS011;36061;48.116;11.612;2023-02-15T04:14:02;14.13;;;5.87;;
50161;SDS011;36061;48.116;11.612;2023-02-15T04:16:50;9.37;;;5.60;;
50161;SDS011;36061;48.116;11.612;2023-02-15T04:19:17;9.93;;;5.17;;
50161;SDS011;36061;48.116;11.612;2023-02-15T04:22:03;9.30;;;5.43;;
50161;SDS011;36061;48.116;11.612;2023-02-15T04:24:47;9.83;;;5.93;;
50161;SDS011;36061;48.116;11.612;2023-02-15T04:27:31;11.03;;;6.20;;
50161;SDS011;36061;48.116;11.612;2023-02-15T04:29:59;9.53;;;5.23;;
50161;SDS011;36061;48.116;11.612;2023-02-15T04:32:26;21.90;;;6.23;;
50161;SDS011;36061;48.116;11.612;2023-02-15T04:34:53;13.30;;;5.47;;
50161;SDS011;36061;48.116;11.612;2023-02-15T04:37:22;12.37;;;5.40;;
50161;SDS011;36061;48.116;11.612;2023-02-15T04:39:49;12.83;;;5.97;;
50161;SDS011;36061;48.116;11.612;2023-02-15T04:42:16;9.73;;;5.40;;
50161;SDS011;36061;48.116;11.612;2023-02-15T04:44:44;9.70;;;5.77;;
50161;SDS011;36061;48.116;11.612;2023-02-15T04:47:11;9.40;;;5.93;;
50161;SDS011;36061;48.116;11.612;2023-02-15T04:49:38;9.37;;;5.80;;
50161;SDS011;36061;48.116;11.612;2023-02-15T04:52:06;8.13;;;5.73;;
50161;SDS011;36061;48.116;11.612;2023-02-15T04:54:34;10.77;;;5.90;;
50161;SDS011;36061;48.116;11.612;2023-02-15T04:57:01;9.63;;;5.40;;
50161;SDS011;36061;48.116;11.612;2023-02-15T04:59:29;7.97;;;5.93;;
50161;SDS011;36061;48.116;11.612;2023-02-15T05:01:56;10.97;;;6.27;;
50161;SDS011;36061;48.116;11.612;2023-02-15T05:04:23;9.50;;;6.17;;
50161;SDS011;36061;48.116;11.612;2023-02-15T05:06:50;9.40;;;6.23;;
50161;SDS011;36061;48.116;11.612;2023-02-15T05:09:18;13.77;;;6.20;;
50161;SDS011;36061;48.116;11.612;2023-02-15T05:11:46;12.53;;;5.90;;
50161;SDS011;36061;48.116;11.612;2023-02-15T05:14:14;11.97;;;5.13;;
50161;SDS011;36061;48.116;11.612;2023-02-15T05:16:41;24.73;;;6.40;;
50161;SDS011;36061;48.116;11.612;2023-02-15T05:19:08;9.93;;;5.60;;
50161;SDS011;36061;48.116;11.612;2023-02-15T05:21:35;10.77;;;6.20;;
50161;SDS011;36061;48.116;11.612;2023-02-15T05:24:03;10.27;;;6.37;;
50161;SDS011;36061;48.116;11.612;2023-02-15T05:26:52;8.53;;;5.83;;
50161;SDS011;36061;48.116;11.612;2023-02-15T05:29:36;10.07;;;5.87;;
50161;SDS011;36061;48.116;11.612;2023-02-15T05:32:04;9.20;;;6.20;;
50161;SDS011;36061;48.116;11.612;2023-02-15T05:34:31;24.57;;;6.50;;
50161;SDS011;36061;48.116;11.612;2023-02-15T05:36:58;11.53;;;6.57;;
50161;SDS011;36061;48.116;11.612;2023-02-15T05:39:25;30.10;;;6.83;;
50161;SDS011;36061;48.116;11.612;2023-02-15T05:41:54;27.23;;;6.53;;
50161;SDS011;36061;48.116;11.612;2023-02-15T05:44:24;24.73;;;6.03;;
50161;SDS011;36061;48.116;11.612;2023-02-15T05:46:51;14.97;;;5.43;;
50161;SDS011;36061;48.116;11.612;2023-02-15T05:49:18;13.77;;;6.37;;
50161;SDS011;36061;48.116;11.612;2023-02-15T05:51:46;11.63;;;5.30;;
50161;SDS011;36061;48.116;11.612;2023-02-15T05:54:13;10.17;;;6.00;;
50161;SDS011;36061;48.116;11.612;2023-02-15T05:56:40;13.63;;;6.17;;
50161;SDS011;36061;48.116;11.612;2023-02-15T05:59:09;9.23;;;6.40;;
50161;SDS011;36061;48.116;11.612;2023-02-15T06:01:36;13.03;;;5.93;;
50161;SDS011;36061;48.116;11.612;2023-02-15T06:04:03;9.80;;;5.87;;
50161;SDS011;36061;48.116;11.612;2023-02-15T06:06:31;16.90;;;5.93;;
50161;SDS011;36061;48.116;11.612;2023-02-15T06:08:59;31.03;;;6.23;;
50161;SDS011;36061;48.116;11.612;2023-02-15T06:11:27;13.00;;;5.57;;
50161;SDS011;36061;48.116;11.612;2023-02-15T06:13:54;16.25;;;7.38;;
50161;SDS011;36061;48.116;11.612;2023-02-15T06:16:22;15.43;;;6.27;;
50161;SDS011;36061;48.116;11.612;2023-02-15T06:18:50;16.97;;;6.03;;
50161;SDS011;36061;48.116;11.612;2023-02-15T06:21:17;17.90;;;6.10;;
50161;SDS011;36061;48.116;11.612;2023-02-15T06:23:44;10.97;;;6.23;;
50161;SDS011;36061;48.116;11.612;2023-02-15T06:26:11;8.67;;;5.80;;
50161;SDS011;36061;48.116;11.612;2023-02-15T06:28:38;11.17;;;5.90;;
50161;SDS011;36061;48.116;11.612;2023-02-15T06:31:06;18.67;;;7.37;;
50161;SDS011;36061;48.116;11.612;2023-02-15T06:33:35;7.97;;;5.60;;
50161;SDS011;36061;48.116;11.612;2023-02-15T06:36:02;23.57;;;6.20;;
50161;SDS011;36061;48.116;11.612;2023-02-15T06:38:30;21.97;;;6.20;;
50161;SDS011;36061;48.116;11.612;2023-02-15T06:40:57;12.70;;;6.07;;
50161;SDS011;36061;48.116;11.612;2023-02-15T06:43:24;8.53;;;5.87;;
50161;SDS011;36061;48.116;11.612;2023-02-15T06:45:51;12.03;;;6.57;;
50161;SDS011;36061;48.116;11.612;2023-02-15T06:48:18;15.43;;;6.13;;
50161;SDS011;36061;48.116;11.612;2023-02-15T06:50:47;10.43;;;5.97;;
50161;SDS011;36061;48.116;11.612;2023-02-15T06:53:14;10.50;;;6.37;;
50161;SDS011;36061;48.116;11.612;2023-02-15T06:55:42;7.03;;;4.83;;
50161;SDS011;36061;48.116;11.612;2023-02-15T06:58:09;24.03;;;4.23;;
50161;SDS011;36061;48.116;11.612;2023-02-15T07:00:36;8.13;;;5.53;;
50161;SDS011;36061;48.116;11.612;2023-02-15T07:03:03;11.57;;;5.50;;
50161;SDS011;36061;48.116;11.612;2023-02-15T07:05:32;9.47;;;6.03;;
50161;SDS011;36061;48.116;11.612;2023-02-15T07:08:01;8.20;;;4.97;;
50161;SDS011;36061;48.116;11.612;2023-02-15T07:10:29;8.50;;;4.80;;
50161;SDS011;36061;48.116;11.612;2023-02-15T07:12:56;10.07;;;5.43;;
50161;SDS011;36061;48.116;11.612;2023-02-15T07:15:22;8.07;;;5.33;;
50161;SDS011;36061;48.116;11.612;2023-02-15T07:17:50;6.93;;;5.20;;
50161;SDS011;36061;48.116;11.612;2023-02-15T07:20:18;8.27;;;5.57;;
50161;SDS011;36061;48.116;11.612;2023-02-15T07:22:47;13.97;;;6.53;;
50161;SDS011;36061;48.116;11.612;2023-02-15T07:25:15;8.83;;;5.00;;
50161;SDS011;36061;48.116;11.612;2023-02-15T07:27:43;9.63;;;6.13;;
50161;SDS011;36061;48.116;11.612;2023-02-15T07:30:11;9.43;;;6.50;;
50161;SDS011;36061;48.116;11.612;2023-02-15T07:32:41;8.73;;;5.63;;
50161;SDS011;36061;48.116;11.612;2023-02-15T07:35:23;10.17;;;6.13;;
50161;SDS011;36061;48.116;11.612;2023-02-15T07:37:50;7.37;;;5.07;;
50161;SDS011;36061;48.116;11.612;2023-02-15T07:40:19;7.90;;;5.80;;
50161;SDS011;36061;48.116;11.612;2023-02-15T07:42:48;8.73;;;5.80;;
50161;SDS011;36061;48.116;11.612;2023-02-15T07:45:18;14.37;;;6.10;;
50161;SDS011;36061;48.116;11.612;2023-02-15T07:47:45;11.40;;;6.27;;
50161;SDS011;36061;48.116;11.612;2023-02-15T07:50:13;8.20;;;6.17;;
50161;SDS011;36061;48.116;11.612;2023-02-15T07:52:40;9.03;;;5.37;;
50161;SDS011;36061;48.116;11.612;2023-02-15T07:55:07;9.40;;;5.53;;
50161;SDS011;36061;48.116;11.612;2023-02-15T07:57:42;10.07;;;5.77;;
50161;SDS011;36061;48.116;11.612;2023-02-15T08:00:11;9.53;;;6.13;;
50161;SDS011;36061;48.116;11.612;2023-02-15T08:02:40;8.00;;;5.33;;
50161;SDS011;36061;48.116;11.612;2023-02-15T08:05:07;11.33;;;6.33;;
50161;SDS011;36061;48.116;11.612;2023-02-15T08:07:34;13.77;;;6.37;;
50161;SDS011;36061;48.116;11.612;2023-02-15T08:10:02;9.90;;;6.53;;
50161;SDS011;36061;48.116;11.612;2023-02-15T08:12:29;11.37;;;6.70;;
50161;SDS011;36061;48.116;11.612;2023-02-15T08:14:58;11.73;;;6.37;;
50161;SDS011;36061;48.116;11.612;2023-02-15T08:17:25;10.07;;;6.90;;
50161;SDS011;36061;48.116;11.612;2023-02-15T08:19:52;8.87;;;6.33;;
50161;SDS011;36061;48.116;11.612;2023-02-15T08:22:20;9.80;;;6.43;;
50161;SDS011;36061;48.116;11.612;2023-02-15T08:24:47;9.93;;;6.97;;
50161;SDS011;36061;48.116;11.612;2023-02-15T08:27:14;9.47;;;6.47;;
50161;SDS011;36061;48.116;11.612;2023-02-15T08:29:41;10.63;;;6.03;;
50161;SDS011;36061;48.116;11.612;2023-02-15T08:32:10;9.53;;;6.07;;
50161;SDS011;36061;48.116;11.612;2023-02-15T08:34:39;10.83;;;7.03;;
50161;SDS011;36061;48.116;11.612;2023-02-15T08:37:08;11.73;;;6.67;;
50161;SDS011;36061;48.116;11.612;2023-02-15T08:39:35;13.17;;;7.30;;
50161;SDS011;36061;48.116;11.612;2023-02-15T08:42:02;21.30;;;8.43;;
50161;SDS011;36061;48.116;11.612;2023-02-15T08:44:30;15.00;;;7.50;;
50161;SDS011;36061;48.116;11.612;2023-02-15T08:46:57;18.07;;;7.67;;
50161;SDS011;36061;48.116;11.612;2023-02-15T08:49:30;18.13;;;8.30;;
50161;SDS011;36061;48.116;11.612;2023-02-15T08:51:57;17.87;;;8.93;;
50161;SDS011;36061;48.116;11.612;2023-02-15T08:54:25;15.57;;;8.67;;
50161;SDS011;36061;48.116;11.612;2023-02-15T08:56:52;16.97;;;8.30;;
50161;SDS011;36061;48.116;11.612;2023-02-15T08:59:20;20.00;;;8.70;;
50161;SDS011;36061;48.116;11.612;2023-02-15T09:01:49;17.53;;;8.10;;
50161;SDS011;36061;48.116;11.612;2023-02-15T09:04:17;19.27;;;8.93;;
50161;SDS011;36061;48.116;11.612;2023-02-15T09:06:47;17.77;;;8.50;;
50161;SDS011;36061;48.116;11.612;2023-02-15T09:09:15;29.20;;;10.50;;
50161;SDS011;36061;48.116;11.612;2023-02-15T09:11:44;16.07;;;8.67;;
50161;SDS011;36061;48.116;11.612;2023-02-15T09:14:13;18.23;;;8.37;;
50161;SDS011;36061;48.116;11.612;2023-02-15T09:16:43;19.57;;;8.87;;
50161;SDS011;36061;48.116;11.612;2023-02-15T09:19:13;18.23;;;8.50;;
50161;SDS011;36061;48.116;11.612;2023-02-15T09:21:41;20.40;;;9.13;;
50161;SDS011;36061;48.116;11.612;2023-02-15T09:24:10;11.67;;;7.40;;
50161;SDS011;36061;48.116;11.612;2023-02-15T09:26:39;25.23;;;9.37;;
50161;SDS011;36061;48.116;11.612;2023-02-15T09:29:08;15.53;;;8.47;;
50161;SDS011;36061;48.116;11.612;2023-02-15T09:31:37;10.67;;;8.40;;
50161;SDS011;36061;48.116;11.612;2023-02-15T09:34:06;23.73;;;8.73;;
50161;SDS011;36061;48.116;11.612;2023-02-15T09:36:34;16.97;;;8.10;;
50161;SDS011;36061;48.116;11.612;2023-02-15T09:39:03;11.90;;;7.97;;
50161;SDS011;36061;48.116;11.612;2023-02-15T09:41:44;20.80;;;10.07;;
50161;SDS011;36061;48.116;11.612;2023-02-15T09:44:32;14.10;;;8.07;;
50161;SDS011;36061;48.116;11.612;2023-02-15T09:47:16;16.50;;;8.53;;
50161;SDS011;36061;48.116;11.612;2023-02-15T09:49:57;17.07;;;8.70;;
50161;SDS011;36061;48.116;11.612;2023-02-15T09:52:40;19.67;;;9.73;;
50161;SDS011;36061;48.116;11.612;2023-02-15T09:55:22;17.87;;;9.57;;
50161;SDS011;36061;48.116;11.612;2023-02-15T09:58:01;15.27;;;8.90;;
50161;SDS011;36061;48.116;11.612;2023-02-15T10:00:38;16.90;;;9.27;;
50161;SDS011;36061;48.116;11.612;2023-02-15T10:03:14;20.97;;;10.20;;
50161;SDS011;36061;48.116;11.612;2023-02-15T10:05:55;24.87;;;9.77;;
50161;SDS011;36061;48.116;11.612;2023-02-15T10:08:41;23.37;;;10.33;;
50161;SDS011;36061;48.116;11.612;2023-02-15T10:11:20;19.23;;;9.70;;
50161;SDS011;36061;48.116;11.612;2023-02-15T10:14:18;16.40;;;9.53;;
50161;SDS011;36061;48.116;11.612;2023-02-15T10:17:06;20.57;;;10.20;;
50161;SDS011;36061;48.116;11.612;2023-02-15T10:19:50;17.27;;;9.50;;
50161;SDS011;36061;48.116;11.612;2023-02-15T10:22:34;16.97;;;10.60;;
50161;SDS011;36061;48.116;11.612;2023-02-15T10:25:13;12.23;;;8.53;;
50161;SDS011;36061;48.116;11.612;2023-02-15T10:27:49;14.00;;;9.47;;
50161;SDS011;36061;48.116;11.612;2023-02-15T10:30:19;15.07;;;8.90;;
50161;SDS011;36061;48.116;11.612;2023-02-15T10:32:55;13.57;;;8.57;;
50161;SDS011;36061;48.116;11.612;2023-02-15T10:35:30;15.03;;;8.63;;
50161;SDS011;36061;48.116;11.612;2023-02-15T10:38:08;12.67;;;8.07;;
50161;SDS011;36061;48.116;11.612;2023-02-15T10:40:47;14.00;;;8.07;;
50161;SDS011;36061;48.116;11.612;2023-02-15T10:43:25;20.23;;;9.37;;
50161;SDS011;36061;48.116;11.612;2023-02-15T10:46:07;17.93;;;8.97;;
50161;SDS011;36061;48.116;11.612;2023-02-15T10:48:47;21.17;;;8.63;;
50161;SDS011;36061;48.116;11.612;2023-02-15T10:51:36;18.83;;;8.50;;
50161;SDS011;36061;48.116;11.612;2023-02-15T10:54:17;14.80;;;7.90;;
50161;SDS011;36061;48.116;11.612;2023-02-15T10:56:53;13.73;;;8.47;;
50161;SDS011;36061;48.116;11.612;2023-02-15T11:02:25;16.93;;;9.33;;
50161;SDS011;36061;48.116;11.612;2023-02-15T11:05:07;14.87;;;8.43;;
50161;SDS011;36061;48.116;11.612;2023-02-15T11:07:52;18.27;;;8.90;;
50161;SDS011;36061;48.116;11.612;2023-02-15T11:10:26;20.90;;;9.00;;
50161;SDS011;36061;48.116;11.612;2023-02-15T11:12:57;16.90;;;9.13;;
50161;SDS011;36061;48.116;11.612;2023-02-15T11:15:29;14.17;;;8.77;;
50161;SDS011;36061;48.116;11.612;2023-02-15T11:18:02;24.73;;;9.67;;
50161;SDS011;36061;48.116;11.612;2023-02-15T11:20:35;13.60;;;8.20;;
50161;SDS011;36061;48.116;11.612;2023-02-15T11:23:09;20.80;;;9.50;;
50161;SDS011;36061;48.116;11.612;2023-02-15T11:25:43;12.87;;;8.73;;
50161;SDS011;36061;48.116;11.612;2023-02-15T11:28:14;15.57;;;9.33;;
50161;SDS011;36061;48.116;11.612;2023-02-15T11:30:48;19.47;;;9.13;;
50161;SDS011;36061;48.116;11.612;2023-02-15T11:33:20;19.97;;;9.43;;
50161;SDS011;36061;48.116;11.612;2023-02-15T11:35:52;16.07;;;9.63;;
50161;SDS011;36061;48.116;11.612;2023-02-15T11:38:25;18.10;;;8.27;;
50161;SDS011;36061;48.116;11.612;2023-02-15T11:40:57;16.90;;;8.77;;
50161;SDS011;36061;48.116;11.612;2023-02-15T11:43:30;18.80;;;8.40;;
50161;SDS011;36061;48.116;11.612;2023-02-15T11:46:02;17.17;;;8.27;;
50161;SDS011;36061;48.116;11.612;2023-02-15T11:48:31;17.20;;;8.63;;
50161;SDS011;36061;48.116;11.612;2023-02-15T11:50:59;12.43;;;8.43;;
50161;SDS011;36061;48.116;11.612;2023-02-15T11:53:29;12.37;;;8.03;;
50161;SDS011;36061;48.116;11.612;2023-02-15T11:56:00;14.83;;;8.27;;
50161;SDS011;36061;48.116;11.612;2023-02-15T11:58:30;12.17;;;7.83;;
50161;SDS011;36061;48.116;11.612;2023-02-15T12:01:08;13.13;;;8.20;;
50161;SDS011;36061;48.116;11.612;2023-02-15T12:03:43;12.60;;;7.77;;
50161;SDS011;36061;48.116;11.612;2023-02-15T12:06:19;13.93;;;8.00;;
50161;SDS011;36061;48.116;11.612;2023-02-15T12:08:55;14.50;;;7.50;;
50161;SDS011;36061;48.116;11.612;2023-02-15T12:11:33;13.97;;;7.60;;
50161;SDS011;36061;48.116;11.612;2023-02-15T12:14:02;12.13;;;8.07;;
50161;SDS011;36061;48.116;11.612;2023-02-15T12:16:33;14.73;;;7.73;;
50161;SDS011;36061;48.116;11.612;2023-02-15T12:19:12;16.27;;;8.70;;
50161;SDS011;36061;48.116;11.612;2023-02-15T12:21:51;13.43;;;8.07;;
50161;SDS011;36061;48.116;11.612;2023-02-15T12:24:20;16.00;;;8.70;;
50161;SDS011;36061;48.116;11.612;2023-02-15T12:26:57;11.47;;;7.60;;
50161;SDS011;36061;48.116;11.612;2023-02-15T12:29:27;16.23;;;8.90;;
50161;SDS011;36061;48.116;11.612;2023-02-15T12:31:57;12.23;;;7.37;;
50161;SDS011;36061;48.116;11.612;2023-02-15T12:34:27;14.07;;;8.10;;
50161;SDS011;36061;48.116;11.612;2023-02-15T12:37:00;12.30;;;7.50;;
50161;SDS011;36061;48.116;11.612;2023-02-15T12:39:34;16.83;;;8.40;;
50161;SDS011;36061;48.116;11.612;2023-02-15T12:42:03;13.17;;;8.40;;
50161;SDS011;36061;48.116;11.612;2023-02-15T12:44:52;10.83;;;7.37;;
50161;SDS011;36061;48.116;11.612;2023-02-15T12:47:21;15.20;;;7.60;;
50161;SDS011;36061;48.116;11.612;2023-02-15T12:52:42;15.60;;;8.13;;
50161;SDS011;36061;48.116;11.612;2023-02-15T12:55:11;12.13;;;8.10;;
50161;SDS011;36061;48.116;11.612;2023-02-15T12:57:47;11.17;;;7.83;;
50161;SDS011;36061;48.116;11.612;2023-02-15T13:00:25;18.20;;;7.43;;
50161;SDS011;36061;48.116;11.612;2023-02-15T13:02:57;11.20;;;7.43;;
50161;SDS011;36061;48.116;11.612;2023-02-15T13:05:28;15.00;;;8.10;;
50161;SDS011;36061;48.116;11.612;2023-02-15T13:08:01;13.20;;;7.70;;
50161;SDS011;36061;48.116;11.612;2023-02-15T13:10:31;11.40;;;7.70;;
50161;SDS011;36061;48.116;11.612;2023-02-15T13:13:01;10.83;;;7.90;;
50161;SDS011;36061;48.116;11.612;2023-02-15T13:15:37;11.57;;;7.43;;
50161;SDS011;36061;48.116;11.612;2023-02-15T13:18:10;11.53;;;7.37;;
50161;SDS011;36061;48.116;11.612;2023-02-15T13:20:40;15.40;;;8.03;;
50161;SDS011;36061;48.116;11.612;2023-02-15T13:23:13;14.93;;;8.33;;
50161;SDS011;36061;48.116;11.612;2023-02-15T13:25:50;13.97;;;8.17;;
50161;SDS011;36061;48.116;11.612;2023-02-15T13:28:18;15.50;;;8.00;;
50161;SDS011;36061;48.116;11.612;2023-02-15T13:30:49;15.43;;;7.80;;
50161;SDS011;36061;48.116;11.612;2023-02-15T13:33:19;16.57;;;8.20;;
50161;SDS011;36061;48.116;11.612;2023-02-15T13:35:56;13.43;;;8.13;;
50161;SDS011;36061;48.116;11.612;2023-02-15T13:38:35;16.73;;;8.83;;
50161;SDS011;36061;48.116;11.612;2023-02-15T13:41:16;13.53;;;8.33;;
50161;SDS011;36061;48.116;11.612;2023-02-15T13:43:52;12.87;;;8.40;;
50161;SDS011;36061;48.116;11.612;2023-02-15T13:46:31;13.07;;;8.00;;
50161;SDS011;36061;48.116;11.612;2023-02-15T13:49:13;11.97;;;7.57;;
50161;SDS011;36061;48.116;11.612;2023-02-15T13:51:51;11.87;;;6.87;;
50161;SDS011;36061;48.116;11.612;2023-02-15T13:54:39;11.50;;;7.43;;
50161;SDS011;36061;48.116;11.612;2023-02-15T13:57:32;16.43;;;7.77;;
50161;SDS011;36061;48.116;11.612;2023-02-15T14:00:17;12.37;;;8.07;;
50161;SDS011;36061;48.116;11.612;2023-02-15T14:02:56;12.33;;;8.13;;
50161;SDS011;36061;48.116;11.612;2023-02-15T14:05:49;11.00;;;7.13;;
50161;SDS011;36061;48.116;11.612;2023-02-15T14:08:32;12.00;;;8.47;;
50161;SDS011;36061;48.116;11.612;2023-02-15T14:11:13;12.27;;;8.30;;
50161;SDS011;36061;48.116;11.612;2023-02-15T14:16:45;10.47;;;7.47;;
50161;SDS011;36061;48.116;11.612;2023-02-15T14:19:20;12.90;;;7.57;;
50161;SDS011;36061;48.116;11.612;2023-02-15T14:21:53;16.13;;;8.67;;
50161;SDS011;36061;48.116;11.612;2023-02-15T14:24:32;17.10;;;8.80;;
50161;SDS011;36061;48.116;11.612;2023-02-15T14:27:06;11.87;;;7.83;;
50161;SDS011;36061;48.116;11.612;2023-02-15T14:29:46;11.97;;;7.97;;
50161;SDS011;36061;48.116;11.612;2023-02-15T14:32:18;13.30;;;8.20;;
50161;SDS011;36061;48.116;11.612;2023-02-15T14:34:52;15.60;;;8.60;;
50161;SDS011;36061;48.116;11.612;2023-02-15T14:37:26;12.17;;;8.73;;
50161;SDS011;36061;48.116;11.612;2023-02-15T14:40:03;15.27;;;9.10;;
50161;SDS011;36061;48.116;11.612;2023-02-15T14:42:53;14.37;;;8.87;;
50161;SDS011;36061;48.116;11.612;2023-02-15T14:45:27;14.53;;;9.27;;
50161;SDS011;36061;48.116;11.612;2023-02-15T14:48:01;13.83;;;9.27;;
50161;SDS011;36061;48.116;11.612;2023-02-15T14:50:38;18.63;;;10.80;;
50161;SDS011;36061;48.116;11.612;2023-02-15T14:53:22;17.97;;;9.60;;
50161;SDS011;36061;48.116;11.612;2023-02-15T14:56:18;16.20;;;9.13;;
50161;SDS011;36061;48.116;11.612;2023-02-15T15:01:50;19.13;;;10.27;;
50161;SDS011;36061;48.116;11.612;2023-02-15T15:04:36;16.07;;;9.40;;
50161;SDS011;36061;48.116;11.612;2023-02-15T15:07:10;15.73;;;10.03;;
50161;SDS011;36061;48.116;11.612;2023-02-15T15:09:45;16.67;;;9.37;;
50161;SDS011;36061;48.116;11.612;2023-02-15T15:12:38;17.10;;;10.03;;
50161;SDS011;36061;48.116;11.612;2023-02-15T15:15:06;15.70;;;9.23;;